Time;durP1;ratioP1;P1;durP2;ratioP2;P2;SDS_P1;SDS_P2;PMS_P1;PMS_P2;Temp;Humidity;BMP_temperature;BMP_pressure;BME280_temperature;BME280_humidity;BME280_pressure;Samples;Min_cycle;Max_cycle;Signal;HPM_P1;HPM_P2
2024/01/11 00:01:10;;;;;;;22.85;13.63;;;0.80;99.90;;;-0.15;89.50;102168.88;4135636;28;20398;-68
2024/01/11 00:03:11;;;;;;;24.27;12.75;;;0.80;99.90;;;-0.10;89.38;102163.56;4135502;28;20023;-69
2024/01/11 00:05:12;;;;;;;23.10;12.93;;;0.90;99.90;;;-0.08;89.63;102166.94;4134028;28;20101;-68
2024/01/11 00:07:12;;;;;;;26.00;14.00;;;0.90;99.90;;;-0.13;89.90;102161.91;4135407;28;20030;-69
2024/01/11 00:09:13;;;;;;;26.25;14.65;;;0.90;99.90;;;-0.11;89.78;102167.03;4135023;28;20034;-69
2024/01/11 00:11:14;;;;;;;26.08;14.15;;;0.80;99.90;;;-0.13;89.76;102166.25;4136431;28;20054;-69
2024/01/11 00:13:15;;;;;;;26.15;14.77;;;0.90;99.90;;;-0.12;89.82;102167.97;4137469;28;20026;-69
2024/01/11 00:15:16;;;;;;;23.38;13.25;;;0.80;99.90;;;-0.14;90.10;102168.00;4138567;28;20030;-69
2024/01/11 00:17:17;;;;;;;26.00;14.52;;;0.90;99.90;;;-0.18;89.94;102161.22;4137500;28;20041;-69
2024/01/11 00:19:18;;;;;;;24.52;14.68;;;0.80;99.90;;;-0.21;90.25;102158.72;4138115;28;20023;-69
2024/01/11 00:21:18;;;;;;;27.92;15.38;;;0.80;99.90;;;-0.16;90.58;102167.22;4169953;28;20052;-69
2024/01/11 00:23:19;;;;;;;25.05;14.50;;;0.80;99.90;;;-0.15;90.58;102160.28;4137565;28;20034;-69
2024/01/11 00:25:20;;;;;;;24.85;14.32;;;0.80;99.90;;;-0.16;90.67;102162.03;4138302;28;20022;-69
2024/01/11 00:27:21;;;;;;;23.90;14.18;;;0.80;99.90;;;-0.16;90.58;102162.03;4138675;28;20018;-69
2024/01/11 00:29:22;;;;;;;24.27;14.63;;;0.80;99.90;;;-0.15;91.01;102158.50;4138242;28;20034;-69
2024/01/11 00:31:22;;;;;;;27.08;15.32;;;0.80;99.90;;;-0.18;90.88;102157.78;4169886;28;20522;-69
2024/01/11 00:33:23;;;;;;;24.00;14.35;;;0.80;99.90;;;-0.12;91.11;102161.00;4137501;28;20484;-68
2024/01/11 00:35:24;;;;;;;27.92;14.60;;;0.80;99.90;;;-0.13;91.40;102167.09;4136890;28;20029;-69
2024/01/11 00:37:25;;;;;;;28.63;14.85;;;0.80;99.90;;;-0.16;91.55;102167.22;4138066;28;20030;-69
2024/01/11 00:39:26;;;;;;;26.17;14.30;;;0.80;99.90;;;-0.14;91.64;102167.13;4138478;28;20025;-69
2024/01/11 00:41:27;;;;;;;27.25;14.93;;;0.80;99.90;;;-0.15;91.45;102171.47;4138167;28;20018;-69
2024/01/11 00:43:27;;;;;;;28.42;14.88;;;0.80;99.90;;;-0.15;91.55;102178.44;4138418;28;20030;-68
2024/01/11 00:45:28;;;;;;;26.15;16.20;;;0.80;99.90;;;-0.18;91.68;102170.75;4138238;28;20026;-68
2024/01/11 00:47:29;;;;;;;27.50;15.90;;;0.80;99.90;;;-0.15;91.71;102174.06;4138230;28;20038;-68
2024/01/11 00:49:30;;;;;;;26.63;14.40;;;0.80;99.90;;;-0.15;92.06;102181.03;4138159;28;20037;-69
2024/01/11 00:51:31;;;;;;;26.30;15.60;;;0.80;99.90;;;-0.19;92.12;102175.09;4137581;28;20035;-68
2024/01/11 00:53:33;;;;;;;26.23;15.70;;;0.80;99.90;;;-0.15;92.52;102176.66;4138424;28;20410;-68
2024/01/11 00:55:34;;;;;;;26.92;15.30;;;0.80;99.90;;;-0.20;92.51;102175.97;4137201;28;20034;-68
2024/01/11 00:57:34;;;;;;;26.95;14.75;;;0.80;99.90;;;-0.22;92.52;102166.56;4138073;28;20045;-68
2024/01/11 00:59:35;;;;;;;26.60;15.15;;;0.80;99.90;;;-0.21;92.81;102178.66;4138730;28;20026;-68
2024/01/11 01:01:36;;;;;;;29.00;16.23;;;0.80;99.90;;;-0.24;93.05;102184.75;4138611;28;20030;-68
2024/01/11 01:03:38;;;;;;;28.38;15.00;;;0.80;99.90;;;-0.24;93.05;102169.19;4138837;28;20021;-69
2024/01/11 01:05:38;;;;;;;26.35;15.18;;;0.70;99.90;;;-0.22;93.45;102177.78;4137168;28;20033;-68
2024/01/11 01:07:40;;;;;;;29.95;16.63;;;0.80;99.90;;;-0.27;93.15;102174.50;4137120;28;20026;-68
2024/01/11 01:09:41;;;;;;;28.10;15.95;;;0.70;99.90;;;-0.23;93.60;102175.22;4138388;28;20030;-68
2024/01/11 01:11:42;;;;;;;25.05;14.93;;;0.70;99.90;;;-0.23;93.78;102176.09;4138380;28;20054;-68
2024/01/11 01:13:43;;;;;;;30.38;16.48;;;0.70;99.90;;;-0.25;93.83;102182.22;4138428;28;20035;-68
2024/01/11 01:15:43;;;;;;;28.20;15.90;;;0.80;99.90;;;-0.29;93.80;102184.06;4138294;28;20027;-68
2024/01/11 01:17:44;;;;;;;27.42;16.00;;;0.70;99.90;;;-0.30;94.31;102181.53;4138235;28;20026;-68
2024/01/11 01:19:45;;;;;;;26.63;15.60;;;0.70;99.90;;;-0.28;94.53;102196.16;4136960;28;20034;-68
2024/01/11 01:21:46;;;;;;;26.42;15.52;;;0.70;99.90;;;-0.32;94.69;102191.94;4137897;28;20469;-68
2024/01/11 01:23:47;;;;;;;29.05;15.95;;;0.70;99.90;;;-0.26;94.72;102202.13;4137195;28;20390;-68
2024/01/11 01:25:48;;;;;;;28.85;15.57;;;0.70;99.90;;;-0.30;95.27;102195.34;4138145;28;20081;-68
2024/01/11 01:27:49;;;;;;;25.85;16.33;;;0.70;99.90;;;-0.28;95.28;102198.75;4138233;28;20018;-68
2024/01/11 01:29:50;;;;;;;26.75;16.52;;;0.70;99.90;;;-0.25;95.51;102197.78;4138191;28;20478;-68
2024/01/11 01:31:51;;;;;;;30.23;17.10;;;0.70;99.90;;;-0.25;95.63;102200.38;4138114;28;20478;-68
2024/01/11 01:33:52;;;;;;;27.40;16.17;;;0.70;99.90;;;-0.26;95.54;102196.09;4138025;28;20089;-68
2024/01/11 01:35:53;;;;;;;27.65;15.93;;;0.70;99.90;;;-0.29;95.73;102207.41;4137616;28;20441;-68
2024/01/11 01:37:53;;;;;;;26.35;15.70;;;0.70;99.90;;;-0.33;96.20;102208.41;4169485;28;20033;-68
2024/01/11 01:39:54;;;;;;;30.42;16.42;;;0.70;99.90;;;-0.32;96.40;102212.69;4136932;28;20510;-68
2024/01/11 01:41:55;;;;;;;29.42;17.73;;;0.70;99.90;;;-0.31;96.76;102216.13;4137941;28;20030;-68
2024/01/11 01:43:56;;;;;;;34.00;17.50;;;0.70;99.90;;;-0.38;96.82;102222.41;4137999;28;20018;-68
2024/01/11 01:45:58;;;;;;;28.17;16.50;;;0.60;99.90;;;-0.38;96.84;102223.25;4136827;28;20034;-68
2024/01/11 01:47:58;;;;;;;33.25;17.95;;;0.60;99.90;;;-0.49;97.18;102220.19;4137863;28;20022;-68
2024/01/11 01:49:59;;;;;;;31.42;17.42;;;0.50;99.90;;;-0.44;97.14;102231.25;4136721;28;20037;-68
2024/01/11 01:52:01;;;;;;;32.58;17.40;;;0.50;99.90;;;-0.52;97.48;102233.25;4120328;28;20429;-68
2024/01/11 01:54:03;;;;;;;30.20;17.70;;;0.50;99.90;;;-0.57;97.58;102232.56;4129155;28;20031;-68
2024/01/11 01:56:05;;;;;;;29.88;17.00;;;0.50;99.90;;;-0.62;97.65;102230.09;4136494;28;20026;-68
2024/01/11 01:58:06;;;;;;;32.08;17.52;;;0.40;99.90;;;-0.70;97.94;102232.09;4136450;28;20084;-68
2024/01/11 02:00:11;;;;;;;31.35;17.40;;;0.30;99.90;;;-0.77;98.20;102227.97;4137707;28;20026;-68
2024/01/11 02:02:12;;;;;;;31.75;18.25;;;0.20;99.90;;;-0.80;98.52;102235.84;4136538;28;20105;-68
2024/01/11 02:04:15;;;;;;;32.72;17.25;;;0.20;99.90;;;-0.83;98.75;102241.13;4136443;28;20061;-68
2024/01/11 02:06:16;;;;;;;32.67;17.33;;;0.20;99.90;;;-0.88;99.26;102236.97;4152347;28;20525;-68
2024/01/11 02:08:21;;;;;;;29.70;18.23;;;0.20;99.90;;;-0.89;99.11;102240.44;4137653;28;20026;-68
2024/01/11 02:10:23;;;;;;;36.63;19.05;;;0.20;99.90;;;-0.96;99.46;102237.22;4136211;28;20080;-69
2024/01/11 02:12:25;;;;;;;33.20;17.27;;;0.10;99.90;;;-1.01;99.77;102238.22;4136043;28;20058;-69
2024/01/11 02:14:26;;;;;;;30.75;17.98;;;0.10;99.90;;;-1.05;100.00;102239.22;4136095;28;20142;-68
2024/01/11 02:16:27;;;;;;;33.60;18.33;;;0.00;99.90;;;-1.11;100.00;102240.25;4137408;28;20027;-68
2024/01/11 02:18:28;;;;;;;29.90;17.42;;;-0.10;99.90;;;-1.21;100.00;102239.69;4137421;28;20037;-68
2024/01/11 02:20:29;;;;;;;32.00;17.60;;;-0.10;99.90;;;-1.33;100.00;102234.84;4135713;28;20026;-68
2024/01/11 02:22:38;;;;;;;32.22;17.85;;;-0.20;99.90;;;-1.38;100.00;102234.16;4120212;28;20034;-68
2024/01/11 02:24:39;;;;;;;31.55;16.85;;;-0.30;99.90;;;-1.47;100.00;102234.41;4136329;28;20019;-68
2024/01/11 02:27:00;;;;;;;36.83;18.20;;;-0.40;99.90;;;-1.54;100.00;102239.78;4136334;28;20062;-68
2024/01/11 02:29:02;;;;;;;31.95;18.00;;;-0.40;99.90;;;-1.59;100.00;102242.50;4137163;28;20034;-68
2024/01/11 02:31:03;;;;;;;32.08;18.05;;;-0.50;99.90;;;-1.62;100.00;102237.41;4137437;28;20026;-68
2024/01/11 02:33:05;;;;;;;40.13;19.90;;;-0.60;99.90;;;-1.56;100.00;102246.75;4135978;28;20034;-68
2024/01/11 02:35:06;;;;;;;41.17;19.33;;;-0.60;99.90;;;-1.47;100.00;102247.34;4136547;28;20033;-68
2024/01/11 02:37:07;;;;;;;33.78;18.77;;;-0.50;99.90;;;-1.41;100.00;102252.34;4134244;28;20030;-68
2024/01/11 02:39:09;;;;;;;34.42;18.10;;;-0.50;99.90;;;-1.33;100.00;102249.53;4137107;28;20064;-68
2024/01/11 02:41:11;;;;;;;33.58;19.58;;;-0.40;99.90;;;-1.27;100.00;102242.44;4135910;28;20434;-68
2024/01/11 02:43:12;;;;;;;30.42;17.20;;;-0.30;99.90;;;-1.19;100.00;102250.81;4135970;28;20048;-68
2024/01/11 02:45:13;;;;;;;35.45;18.70;;;-0.30;99.90;;;-1.16;100.00;102248.16;4135705;28;20026;-68
2024/01/11 02:47:14;;;;;;;34.35;19.20;;;-0.20;99.90;;;-1.18;100.00;102249.09;4137016;28;20030;-68
2024/01/11 02:49:15;;;;;;;38.42;19.00;;;-0.10;99.90;;;-1.13;100.00;102248.06;4137133;28;20478;-68
2024/01/11 02:51:16;;;;;;;35.67;18.75;;;-0.10;99.90;;;-1.18;100.00;102260.31;4136760;28;20034;-68
2024/01/11 02:53:17;;;;;;;34.90;19.77;;;-0.10;99.90;;;-1.28;100.00;102264.03;4136670;28;20394;-68
2024/01/11 02:55:17;;;;;;;34.38;18.73;;;-0.20;99.90;;;-1.38;100.00;102265.22;4136856;28;20038;-68
2024/01/11 02:57:18;;;;;;;34.97;19.05;;;-0.20;99.90;;;-1.45;100.00;102273.16;4136771;28;20034;-68
2024/01/11 02:59:19;;;;;;;33.47;18.77;;;-0.30;99.90;;;-1.54;100.00;102257.88;4135655;28;20026;-68
2024/01/11 03:01:20;;;;;;;37.80;19.33;;;-0.40;99.90;;;-1.60;100.00;102264.09;4135170;28;20018;-68
2024/01/11 03:03:21;;;;;;;39.28;18.80;;;-0.50;99.90;;;-1.69;100.00;102278.13;4132597;28;20030;-68
2024/01/11 03:05:21;;;;;;;38.50;19.85;;;-0.60;99.90;;;-1.76;100.00;102276.56;4136817;28;20065;-68
2024/01/11 03:07:22;;;;;;;39.67;19.92;;;-0.70;99.90;;;-1.74;100.00;102279.13;4136415;28;20034;-68
2024/01/11 03:09:23;;;;;;;35.85;20.23;;;-0.70;99.90;;;-1.80;100.00;102280.16;4135286;28;20030;-68
2024/01/11 03:11:24;;;;;;;37.55;20.38;;;-0.80;99.90;;;-1.83;100.00;102279.38;4119047;28;20082;-68
2024/01/11 03:13:25;;;;;;;35.72;21.10;;;-0.80;99.90;;;-1.88;100.00;102269.13;4136608;28;20030;-68
2024/01/11 03:15:26;;;;;;;38.80;21.40;;;-0.80;99.90;;;-1.93;100.00;102276.16;4136474;28;20066;-68
2024/01/11 03:17:27;;;;;;;36.03;20.00;;;-0.90;99.90;;;-1.96;100.00;102288.31;4136360;28;20033;-68
2024/01/11 03:19:28;;;;;;;35.65;20.48;;;-0.90;99.90;;;-1.98;100.00;102287.53;4135270;28;20030;-68
2024/01/11 03:21:29;;;;;;;36.65;20.75;;;-0.90;99.90;;;-2.00;100.00;102284.13;4136457;28;20470;-68
2024/01/11 03:23:29;;;;;;;40.70;21.45;;;-1.00;99.90;;;-2.01;100.00;102290.19;4135171;28;20030;-68
2024/01/11 03:25:30;;;;;;;37.75;20.20;;;-1.00;99.90;;;-2.06;100.00;102285.13;4135098;28;20029;-68
2024/01/11 03:27:31;;;;;;;41.78;21.73;;;-1.00;99.90;;;-2.07;100.00;102291.19;4151460;28;20026;-68
2024/01/11 03:29:32;;;;;;;38.95;20.95;;;-1.00;99.90;;;-2.05;100.00;102296.31;4136467;28;20547;-68
2024/01/11 03:31:33;;;;;;;37.42;21.48;;;-1.10;99.90;;;-2.01;100.00;102293.63;4136366;28;20026;-68
2024/01/11 03:33:34;;;;;;;41.95;22.73;;;-1.00;99.90;;;-1.97;100.00;102302.97;4135073;28;20432;-68
2024/01/11 03:35:35;;;;;;;37.58;21.83;;;-1.00;99.90;;;-1.98;100.00;102301.31;4136099;28;20038;-68
2024/01/11 03:37:36;;;;;;;37.22;21.73;;;-1.00;99.90;;;-1.99;100.00;102307.34;4136431;28;20033;-68
2024/01/11 03:39:36;;;;;;;39.90;21.50;;;-0.90;99.90;;;-1.97;100.00;102308.16;4136302;28;20034;-68
2024/01/11 03:41:43;;;;;;;35.63;20.50;;;-0.90;99.90;;;-1.96;100.00;102309.00;4136244;28;20034;-68
2024/01/11 03:43:44;;;;;;;42.30;20.95;;;-0.90;99.90;;;-1.89;100.00;102313.16;4119426;28;20068;-68
2024/01/11 03:45:44;;;;;;;37.30;21.00;;;-0.90;99.90;;;-1.84;100.00;102316.47;4135304;28;20532;-68
2024/01/11 03:47:46;;;;;;;41.28;23.05;;;-0.80;99.90;;;-1.82;100.00;102312.94;4136182;28;20177;-69
2024/01/11 03:49:47;;;;;;;37.78;20.73;;;-0.80;99.90;;;-1.73;100.00;102314.44;4136101;28;20084;-68
2024/01/11 03:51:47;;;;;;;41.95;21.58;;;-0.80;99.90;;;-1.65;100.00;102316.84;4134676;28;20065;-68
2024/01/11 03:53:48;;;;;;;38.85;21.63;;;-0.70;99.90;;;-1.57;100.00;102312.31;4125930;28;20030;-68
2024/01/11 03:55:49;;;;;;;45.53;23.10;;;-0.60;99.90;;;-1.51;100.00;102310.41;4134995;28;20452;-68
2024/01/11 03:57:52;;;;;;;38.92;20.65;;;-0.50;99.90;;;-1.45;100.00;102311.97;4134921;28;20026;-68
2024/01/11 03:59:53;;;;;;;41.95;22.38;;;-0.50;99.90;;;-1.43;100.00;102320.53;4118860;28;20086;-68
2024/01/11 04:01:55;;;;;;;47.35;23.02;;;-0.40;99.90;;;-1.38;100.00;102321.28;4136134;28;20018;-68
2024/01/11 04:03:55;;;;;;;41.00;21.35;;;-0.40;99.90;;;-1.36;100.00;102317.75;4136112;28;20030;-68
2024/01/11 04:05:56;;;;;;;45.65;22.85;;;-0.40;99.90;;;-1.34;100.00;102323.75;4134803;28;20034;-68
2024/01/11 04:07:57;;;;;;;36.25;22.20;;;-0.30;99.90;;;-1.35;100.00;102319.47;4134709;28;20030;-68
2024/01/11 04:09:58;;;;;;;43.97;22.85;;;-0.30;99.90;;;-1.39;100.00;102320.44;4134668;28;20022;-68
2024/01/11 04:11:59;;;;;;;41.20;22.33;;;-0.30;99.90;;;-1.34;100.00;102331.50;4135868;28;20383;-68
2024/01/11 04:14:00;;;;;;;43.35;22.63;;;-0.30;99.90;;;-1.41;100.00;102314.47;4135967;28;20033;-68
2024/01/11 04:16:05;;;;;;;39.25;22.05;;;-0.30;99.90;;;-1.45;100.00;102309.41;4134486;28;20561;-68
2024/01/11 04:18:06;;;;;;;42.50;22.92;;;-0.30;99.90;;;-1.39;100.00;102314.41;4134818;28;20077;-68
2024/01/11 04:20:10;;;;;;;43.10;23.90;;;-0.30;99.90;;;-1.36;100.00;102322.09;4135865;28;20014;-68
2024/01/11 04:22:11;;;;;;;37.20;21.05;;;-0.30;99.90;;;-1.39;100.00;102333.38;4135652;28;20030;-68
2024/01/11 04:24:12;;;;;;;40.55;21.88;;;-0.30;99.90;;;-1.38;100.00;102327.31;4135898;28;20049;-68
2024/01/11 04:26:13;;;;;;;41.70;21.63;;;-0.30;99.90;;;-1.37;100.00;102321.22;4135912;28;20026;-68
2024/01/11 04:28:14;;;;;;;39.35;22.00;;;-0.30;99.90;;;-1.38;100.00;102316.97;4134714;28;20049;-68
2024/01/11 04:30:15;;;;;;;40.33;22.20;;;-0.30;99.90;;;-1.34;100.00;102322.88;4135867;28;20030;-68
2024/01/11 04:32:16;;;;;;;45.75;24.45;;;-0.30;99.90;;;-1.40;100.00;102316.13;4136047;28;20103;-68
2024/01/11 04:34:16;;;;;;;39.47;21.70;;;-0.30;99.90;;;-1.36;100.00;102325.53;4135830;28;20023;-68
2024/01/11 04:36:17;;;;;;;40.63;22.13;;;-0.30;99.90;;;-1.34;100.00;102330.66;4135475;28;20034;-68
2024/01/11 04:38:18;;;;;;;43.63;24.08;;;-0.30;99.90;;;-1.32;100.00;102331.47;4134613;28;20029;-68
2024/01/11 04:40:19;;;;;;;37.95;21.52;;;-0.20;99.90;;;-1.36;100.00;102317.75;4134633;28;20030;-68
2024/01/11 04:42:20;;;;;;;40.55;21.80;;;-0.20;99.90;;;-1.34;100.00;102325.47;4135804;28;20030;-68
2024/01/11 04:44:21;;;;;;;38.40;21.63;;;-0.30;99.90;;;-1.35;100.00;102319.47;4134542;28;20074;-68
2024/01/11 04:46:23;;;;;;;37.17;20.20;;;-0.20;99.90;;;-1.31;100.00;102321.06;4135861;28;20081;-68
2024/01/11 04:48:24;;;;;;;44.92;22.23;;;-0.30;99.90;;;-1.31;100.00;102322.81;4135632;28;20023;-68
2024/01/11 04:50:24;;;;;;;38.38;21.85;;;-0.20;99.90;;;-1.36;100.00;102317.75;4135492;28;20034;-68
2024/01/11 04:52:25;;;;;;;36.65;20.73;;;-0.20;99.90;;;-1.27;100.00;102325.28;4135621;28;20486;-68
2024/01/11 04:54:26;;;;;;;37.85;21.67;;;-0.20;99.90;;;-1.32;100.00;102327.16;4135646;28;20030;-68
2024/01/11 04:56:29;;;;;;;38.38;23.48;;;-0.20;99.90;;;-1.37;100.00;102316.06;4135450;28;20031;-68
2024/01/11 04:58:30;;;;;;;41.45;21.85;;;-0.20;99.90;;;-1.30;100.00;102333.13;4138617;28;20165;-68
2024/01/11 05:00:31;;;;;;;39.40;21.27;;;-0.20;99.90;;;-1.30;100.00;102332.28;4138457;28;20026;-69
2024/01/11 05:02:32;;;;;;;38.63;21.48;;;-0.20;99.90;;;-1.30;100.00;102337.44;4138560;28;20026;-68
2024/01/11 05:04:32;;;;;;;38.78;21.75;;;-0.30;99.90;;;-1.35;100.00;102340.19;4138426;28;20025;-69
2024/01/11 05:06:33;;;;;;;34.83;20.33;;;-0.30;99.90;;;-1.39;100.00;102343.72;4138391;28;20030;-69
2024/01/11 05:08:34;;;;;;;39.00;22.25;;;-0.30;99.90;;;-1.41;100.00;102350.69;4137373;28;20030;-68
2024/01/11 05:10:36;;;;;;;38.58;22.00;;;-0.30;99.90;;;-1.40;100.00;102352.38;4138403;28;20113;-68
2024/01/11 05:12:38;;;;;;;38.70;21.95;;;-0.30;99.90;;;-1.44;100.00;102355.94;4136974;28;20061;-68
2024/01/11 05:14:38;;;;;;;38.92;21.67;;;-0.40;99.90;;;-1.46;100.00;102359.44;4138296;28;20041;-68
2024/01/11 05:16:40;;;;;;;34.25;20.48;;;-0.40;99.90;;;-1.49;100.00;102368.13;4137179;28;20027;-68
2024/01/11 05:18:41;;;;;;;40.63;20.83;;;-0.40;99.90;;;-1.46;100.00;102368.06;4138340;28;20398;-68
2024/01/11 05:20:42;;;;;;;35.10;20.02;;;-0.40;99.90;;;-1.43;100.00;102375.75;4137870;28;20057;-68
2024/01/11 05:22:42;;;;;;;36.17;20.17;;;-0.40;99.90;;;-1.44;100.00;102366.31;4138368;28;20158;-68
2024/01/11 05:24:43;;;;;;;40.55;20.35;;;-0.40;99.90;;;-1.43;100.00;102370.56;4138305;28;20491;-68
2024/01/11 05:26:45;;;;;;;38.08;20.65;;;-0.40;99.90;;;-1.42;100.00;102368.84;4138273;28;20034;-68
2024/01/11 05:28:47;;;;;;;39.58;21.40;;;-0.40;99.90;;;-1.42;100.00;102374.00;4138196;28;20389;-68
2024/01/11 05:30:47;;;;;;;42.10;21.85;;;-0.40;99.90;;;-1.40;100.00;102367.03;4138207;28;20038;-68
2024/01/11 05:32:48;;;;;;;36.92;19.45;;;-0.40;99.90;;;-1.34;100.00;102377.25;4138098;28;20049;-68
2024/01/11 05:34:49;;;;;;;40.80;20.90;;;-0.30;99.90;;;-1.39;100.00;102369.59;4138247;28;20053;-68
2024/01/11 05:36:50;;;;;;;38.55;19.95;;;-0.30;99.90;;;-1.40;100.00;102362.72;4137651;28;20053;-68
2024/01/11 05:38:51;;;;;;;36.33;19.67;;;-0.30;99.90;;;-1.36;100.00;102360.91;4136676;28;20105;-68
2024/01/11 05:40:52;;;;;;;40.90;20.48;;;-0.30;99.90;;;-1.30;100.00;102368.50;4138141;28;20452;-68
2024/01/11 05:42:53;;;;;;;34.55;20.10;;;-0.30;99.90;;;-1.31;100.00;102357.31;4138004;28;20030;-68
2024/01/11 05:44:53;;;;;;;36.90;19.30;;;-0.30;99.90;;;-1.30;100.00;102364.19;4136987;28;20018;-68
2024/01/11 05:46:54;;;;;;;39.55;20.35;;;-0.30;99.90;;;-1.33;100.00;102368.59;4137813;28;20078;-68
2024/01/11 05:48:55;;;;;;;32.58;19.85;;;-0.20;99.90;;;-1.32;100.00;102370.31;4136855;28;20026;-68
2024/01/11 05:50:56;;;;;;;36.40;18.85;;;-0.30;99.90;;;-1.26;100.00;102370.13;4137589;28;20038;-68
2024/01/11 05:52:57;;;;;;;38.25;20.75;;;-0.20;99.90;;;-1.27;100.00;102374.47;4137710;28;20033;-68
2024/01/11 05:54:58;;;;;;;35.03;19.35;;;-0.20;99.90;;;-1.32;100.00;102362.53;4137861;28;20030;-68
2024/01/11 05:56:59;;;;;;;36.65;20.73;;;-0.20;99.90;;;-1.21;100.00;102361.34;4137746;28;20528;-68
2024/01/11 05:59:00;;;;;;;36.88;19.88;;;-0.20;99.90;;;-1.25;100.00;102364.06;4137918;28;20487;-68
2024/01/11 06:01:01;;;;;;;35.50;19.67;;;-0.20;99.90;;;-1.18;100.00;102374.22;4137670;28;20022;-68
2024/01/11 06:03:02;;;;;;;35.30;18.98;;;-0.20;99.90;;;-1.17;100.00;102365.56;4137516;28;20057;-68
2024/01/11 06:05:04;;;;;;;34.47;19.75;;;-0.10;99.90;;;-1.17;100.00;102364.72;4137696;28;20026;-68
2024/01/11 06:07:05;;;;;;;33.88;19.65;;;-0.20;99.90;;;-1.14;100.00;102357.72;4136245;28;20042;-68
2024/01/11 06:09:06;;;;;;;36.33;19.38;;;-0.10;99.90;;;-1.13;100.00;102362.00;4135292;28;20041;-68
2024/01/11 06:11:07;;;;;;;35.30;18.23;;;-0.10;99.90;;;-1.10;100.00;102368.81;4135950;28;20220;-68
2024/01/11 06:13:09;;;;;;;34.25;19.50;;;-0.10;99.90;;;-1.07;100.00;102380.81;4137613;28;20481;-68
2024/01/11 06:15:10;;;;;;;37.53;20.10;;;-0.10;99.90;;;-1.06;100.00;102375.63;4137849;28;20026;-68
2024/01/11 06:17:11;;;;;;;33.75;18.70;;;-0.10;99.90;;;-1.11;100.00;102370.56;4137364;28;20026;-68
2024/01/11 06:19:12;;;;;;;35.33;19.30;;;0.00;99.90;;;-1.09;100.00;102374.84;4137519;28;20501;-68
2024/01/11 06:21:13;;;;;;;32.85;18.92;;;0.00;99.90;;;-1.17;100.00;102369.91;4137168;28;20022;-68
2024/01/11 06:23:14;;;;;;;34.30;20.38;;;0.00;99.90;;;-1.17;100.00;102378.50;4136352;28;20022;-68
2024/01/11 06:25:15;;;;;;;39.97;20.73;;;-0.10;99.90;;;-1.16;100.00;102372.44;4137377;28;20414;-68
2024/01/11 06:27:16;;;;;;;39.90;21.77;;;-0.10;99.90;;;-1.14;100.00;102365.50;4137280;28;20105;-68
2024/01/11 06:29:16;;;;;;;35.80;20.75;;;-0.10;99.90;;;-1.10;100.00;102371.41;4136160;28;20034;-68
2024/01/11 06:31:18;;;;;;;37.40;21.15;;;-0.10;99.90;;;-1.09;100.00;102386.06;4136117;28;20430;-68
2024/01/11 06:33:20;;;;;;;32.70;19.63;;;-0.10;99.90;;;-1.21;100.00;102381.22;4137146;28;20031;-68
2024/01/11 06:35:21;;;;;;;33.25;18.83;;;-0.10;99.90;;;-1.15;100.00;102384.50;4136830;28;20022;-68
2024/01/11 06:37:22;;;;;;;35.63;19.77;;;-0.10;99.90;;;-1.21;100.00;102392.41;4135953;28;20086;-68
2024/01/11 06:39:23;;;;;;;34.60;19.52;;;-0.10;99.90;;;-1.11;100.00;102395.63;4137293;28;20034;-68
2024/01/11 06:41:24;;;;;;;36.00;20.25;;;-0.10;99.90;;;-1.17;100.00;102394.06;4137061;28;20026;-68
2024/01/11 06:43:25;;;;;;;33.05;19.88;;;-0.10;99.90;;;-1.14;100.00;102396.56;4136926;28;20035;-68
2024/01/11 06:45:25;;;;;;;34.50;20.20;;;-0.10;99.90;;;-1.14;100.00;102390.53;4137047;28;20394;-68
2024/01/11 06:47:26;;;;;;;33.90;19.70;;;-0.10;99.90;;;-1.11;100.00;102388.69;4137100;28;20037;-68
2024/01/11 06:49:27;;;;;;;38.25;20.25;;;-0.10;99.90;;;-1.21;100.00;102387.25;4136967;28;20037;-68
2024/01/11 06:51:28;;;;;;;35.60;19.80;;;-0.10;99.90;;;-1.17;100.00;102386.28;4135270;28;20026;-68
2024/01/11 06:53:29;;;;;;;34.47;19.75;;;-0.10;99.90;;;-1.16;100.00;102390.56;4124020;28;20026;-68
2024/01/11 06:55:30;;;;;;;28.67;17.58;;;-0.10;99.90;;;-1.10;100.00;102386.94;4135839;28;20038;-68
2024/01/11 06:57:31;;;;;;;33.55;19.27;;;-0.10;99.90;;;-1.14;100.00;102393.97;4135763;28;20030;-68
2024/01/11 06:59:32;;;;;;;35.90;19.08;;;-0.10;99.90;;;-1.13;100.00;102387.88;4135683;28;20023;-68
2024/01/11 07:01:33;;;;;;;32.45;20.15;;;-0.10;99.90;;;-1.11;100.00;102399.03;4136569;28;20026;-68
2024/01/11 07:03:33;;;;;;;39.75;20.42;;;-0.10;99.90;;;-1.12;100.00;102394.78;4136800;28;20080;-68
2024/01/11 07:05:34;;;;;;;34.33;20.08;;;0.00;99.90;;;-1.12;100.00;102402.53;4130550;28;20027;-68
2024/01/11 07:07:35;;;;;;;31.60;18.48;;;-0.10;99.90;;;-1.09;100.00;102403.34;4132875;28;20076;-69
2024/01/11 07:09:36;;;;;;;34.08;19.40;;;-0.10;99.90;;;-1.13;100.00;102413.78;4136437;28;20042;-68
2024/01/11 07:11:37;;;;;;;35.15;18.60;;;-0.10;99.90;;;-1.13;100.00;102429.31;4135332;28;20061;-68
2024/01/11 07:13:38;;;;;;;35.05;19.50;;;-0.10;99.90;;;-1.16;100.00;102442.34;4136568;28;20558;-68
2024/01/11 07:15:39;;;;;;;33.22;18.23;;;-0.10;99.90;;;-1.12;100.00;102445.69;4136512;28;20039;-68
2024/01/11 07:17:39;;;;;;;36.08;20.08;;;-0.10;99.90;;;-1.14;100.00;102439.72;4135058;28;20026;-68
2024/01/11 07:19:40;;;;;;;31.25;19.90;;;-0.10;99.90;;;-1.19;100.00;102439.81;4136267;28;20026;-68
2024/01/11 07:21:41;;;;;;;34.63;20.17;;;-0.10;99.90;;;-1.16;100.00;102444.06;4135094;28;20029;-68
2024/01/11 07:23:42;;;;;;;35.15;18.73;;;-0.10;99.90;;;-1.11;100.00;102447.41;4135210;28;20053;-68
2024/01/11 07:25:43;;;;;;;34.03;19.67;;;-0.10;99.90;;;-1.11;100.00;102453.41;4136347;28;20026;-68
2024/01/11 07:27:44;;;;;;;32.03;18.48;;;-0.10;99.90;;;-1.15;100.00;102456.13;4136632;28;20037;-68
2024/01/11 07:29:45;;;;;;;36.40;19.13;;;-0.10;99.90;;;-1.12;100.00;102458.63;4136218;28;20157;-68
2024/01/11 07:31:46;;;;;;;34.33;19.13;;;-0.10;99.90;;;-1.03;100.00;102457.56;4119087;28;20031;-68
2024/01/11 07:33:47;;;;;;;35.50;19.42;;;0.00;99.90;;;-1.03;100.00;102454.97;4136255;28;20042;-68
2024/01/11 07:35:48;;;;;;;31.10;19.02;;;0.00;99.90;;;-1.04;100.00;102453.25;4136245;28;20041;-68
2024/01/11 07:37:49;;;;;;;38.40;20.10;;;0.00;99.90;;;-1.03;100.00;102461.00;4135056;28;20160;-68
2024/01/11 07:39:53;;;;;;;34.88;19.35;;;0.00;99.90;;;-1.00;100.00;102463.50;4134089;28;20054;-68
2024/01/11 07:41:54;;;;;;;32.10;18.50;;;0.00;99.90;;;-0.97;100.00;102470.34;4141974;28;20068;-68
2024/01/11 07:43:58;;;;;;;36.30;19.70;;;0.10;99.90;;;-0.95;100.00;102463.38;4133912;28;20041;-68
2024/01/11 07:45:59;;;;;;;27.33;14.82;;;0.10;99.90;;;-0.97;100.00;102472.94;4132676;28;20026;-68
2024/01/11 07:48:00;;;;;;;32.20;17.52;;;0.10;99.90;;;-0.94;100.00;102465.06;4135716;28;20038;-68
2024/01/11 07:50:01;;;;;;;33.08;18.83;;;0.10;99.90;;;-0.97;100.00;102465.16;4134746;28;20023;-68
2024/01/11 07:52:01;;;;;;;33.92;19.05;;;0.10;99.90;;;-0.98;100.00;102474.66;4134725;28;20038;-68
2024/01/11 07:54:02;;;;;;;33.90;20.15;;;0.10;99.90;;;-0.93;100.00;102477.16;4127679;28;20435;-68
2024/01/11 07:56:04;;;;;;;32.08;18.20;;;0.10;99.90;;;-0.94;100.00;102475.44;4135818;28;20030;-68
2024/01/11 07:58:04;;;;;;;36.53;19.73;;;0.10;99.90;;;-0.87;100.00;102482.16;4135957;28;20588;-68
2024/01/11 08:00:07;;;;;;;35.83;19.15;;;0.10;99.90;;;-0.86;100.00;102483.84;4134695;28;20026;-68
2024/01/11 08:02:08;;;;;;;35.55;18.98;;;0.10;99.90;;;-0.85;100.00;102485.56;4136107;28;20053;-68
2024/01/11 08:04:09;;;;;;;32.25;19.15;;;0.20;99.90;;;-0.86;100.00;102481.25;4136118;28;20106;-68
2024/01/11 08:06:09;;;;;;;33.75;19.00;;;0.20;99.90;;;-0.90;100.00;102482.25;4135583;28;20500;-68
2024/01/11 08:08:10;;;;;;;35.67;20.70;;;0.20;99.90;;;-0.90;100.00;102482.25;4167556;28;20489;-68
2024/01/11 08:10:11;;;;;;;30.55;18.60;;;0.20;99.90;;;-0.85;100.00;102493.31;4134952;28;20022;-68
2024/01/11 08:12:13;;;;;;;34.20;18.30;;;0.20;99.90;;;-0.85;100.00;102493.31;4137580;28;20053;-68